createdAt,value
2022-08-31T03:00:16.335Z,22.90
2022-08-31T03:02:44.446Z,22.90
2022-08-31T03:05:12.741Z,22.90
2022-08-31T03:07:41.338Z,22.90
2022-08-31T03:10:11.908Z,22.90
2022-08-31T03:12:39.846Z,22.90
2022-08-31T03:15:11.168Z,22.80
2022-08-31T03:17:40.694Z,22.80
2022-08-31T03:20:11.768Z,22.80
2022-08-31T03:22:40.283Z,22.80
2022-08-31T03:25:13.730Z,22.80
2022-08-31T03:27:41.884Z,22.80
2022-08-31T03:30:13.177Z,22.80
2022-08-31T03:32:48.136Z,22.80
2022-08-31T03:35:18.112Z,22.70
2022-08-31T03:37:46.256Z,22.60
2022-08-31T03:40:14.579Z,22.50
2022-08-31T03:42:44.659Z,22.40
2022-08-31T03:45:14.635Z,22.30
2022-08-31T03:47:44.762Z,22.40
2022-08-31T03:50:16.174Z,22.30
2022-08-31T03:53:04.097Z,22.30
2022-08-31T03:55:32.269Z,22.30
2022-08-31T03:58:00.624Z,22.20
2022-08-31T04:00:29.542Z,22.20
2022-08-31T04:03:03.629Z,22.20
2022-08-31T04:05:36.146Z,22.10
2022-08-31T04:08:24.049Z,22.10
2022-08-31T04:11:13.829Z,22.10
2022-08-31T04:14:19.594Z,22.10
2022-08-31T04:17:06.225Z,22.00
2022-08-31T04:19:42.980Z,21.90
2022-08-31T04:22:28.598Z,21.90
2022-08-31T04:25:21.562Z,21.90
2022-08-31T04:27:50.325Z,21.90
2022-08-31T04:30:20.897Z,21.80
2022-08-31T04:32:48.926Z,21.80
2022-08-31T04:35:17.321Z,21.80
2022-08-31T04:37:47.227Z,21.80
2022-08-31T04:40:20.258Z,21.80
2022-08-31T04:42:53.806Z,21.70
2022-08-31T04:45:24.974Z,21.70
2022-08-31T04:47:54.066Z,21.70
2022-08-31T04:50:22.577Z,21.70
2022-08-31T04:53:09.107Z,21.70
2022-08-31T04:55:41.065Z,21.70
2022-08-31T04:58:10.775Z,21.60
2022-08-31T05:00:38.803Z,21.60
2022-08-31T05:03:23.016Z,21.50
2022-08-31T05:05:54.131Z,21.60
2022-08-31T05:08:23.598Z,21.50
2022-08-31T05:10:51.516Z,21.50
2022-08-31T05:13:19.584Z,21.50
2022-08-31T05:15:47.719Z,21.40
2022-08-31T05:18:21.075Z,21.40
2022-08-31T05:20:55.635Z,21.40
2022-08-31T05:23:24.999Z,21.40
2022-08-31T05:25:53.026Z,21.40
2022-08-31T05:28:23.332Z,21.40
2022-08-31T05:30:51.324Z,21.40
2022-08-31T05:33:31.337Z,21.40
2022-08-31T05:36:02.814Z,21.40
2022-08-31T05:38:32.547Z,21.50
2022-08-31T05:41:00.925Z,21.50
2022-08-31T05:43:29.675Z,21.40
2022-08-31T05:45:58.701Z,21.30
2022-08-31T05:48:33.418Z,21.20
2022-08-31T05:51:03.640Z,21.20
2022-08-31T05:53:34.029Z,21.10
2022-08-31T05:56:06.717Z,21.00
2022-08-31T05:58:35.405Z,20.90
2022-08-31T06:01:04.848Z,20.80
2022-08-31T06:03:56.841Z,20.70
2022-08-31T06:06:25.917Z,20.60
2022-08-31T06:08:57.822Z,20.70
2022-08-31T06:11:29.486Z,20.60
2022-08-31T06:13:59.586Z,20.50
2022-08-31T06:16:27.930Z,20.50
2022-08-31T06:18:58.302Z,20.40
2022-08-31T06:21:30.873Z,20.40
2022-08-31T06:24:01.507Z,20.40
2022-08-31T06:26:32.936Z,20.30
2022-08-31T06:29:02.814Z,20.20
2022-08-31T06:31:33.895Z,20.20
2022-08-31T06:34:04.738Z,20.20
2022-08-31T06:36:55.644Z,20.30
2022-08-31T06:39:57.241Z,20.20
2022-08-31T06:42:48.047Z,20.40
2022-08-31T06:45:51.170Z,20.40
2022-08-31T06:48:34.522Z,20.40
2022-08-31T06:51:03.642Z,20.30
2022-08-31T06:53:31.780Z,20.40
2022-08-31T06:56:25.139Z,20.30
2022-08-31T06:59:12.570Z,20.30
2022-08-31T07:01:55.053Z,20.40
2022-08-31T07:04:36.070Z,20.30
2022-08-31T07:07:06.692Z,20.30
2022-08-31T07:09:35.418Z,20.30
2022-08-31T07:12:06.760Z,20.30
2022-08-31T07:14:35.686Z,20.40
2022-08-31T07:17:04.483Z,20.40
2022-08-31T07:19:34.974Z,20.40
2022-08-31T07:22:09.202Z,20.40
2022-08-31T07:24:39.522Z,20.40
2022-08-31T07:27:16.333Z,20.30
2022-08-31T07:29:57.815Z,20.30
2022-08-31T07:32:26.311Z,20.30
2022-08-31T07:35:00.709Z,20.30
2022-08-31T07:37:55.161Z,20.40
2022-08-31T07:40:45.632Z,20.30
2022-08-31T07:43:18.434Z,20.30
2022-08-31T07:45:47.197Z,20.30
2022-08-31T07:48:22.109Z,20.30
2022-08-31T07:51:10.521Z,20.30
2022-08-31T07:54:00.416Z,20.40
2022-08-31T07:56:42.069Z,20.40
2022-08-31T07:59:18.266Z,20.40
2022-08-31T08:01:48.150Z,20.40
2022-08-31T08:04:25.355Z,20.30
2022-08-31T08:07:16.613Z,20.20
2022-08-31T08:09:56.644Z,20.30
2022-08-31T08:12:47.048Z,20.30
2022-08-31T08:15:25.969Z,20.30
2022-08-31T08:18:04.571Z,20.30
2022-08-31T08:20:39.157Z,20.30
2022-08-31T08:23:13.973Z,20.30
2022-08-31T08:26:21.719Z,20.30
2022-08-31T08:29:10.323Z,20.30
2022-08-31T08:31:52.964Z,20.30
2022-08-31T08:34:31.603Z,20.30
2022-08-31T08:37:02.504Z,20.40
2022-08-31T08:39:31.065Z,20.30
2022-08-31T08:42:15.637Z,20.40
2022-08-31T08:44:45.096Z,20.30
2022-08-31T08:47:18.990Z,20.30
2022-08-31T08:49:54.989Z,20.20
2022-08-31T08:52:28.698Z,20.20
2022-08-31T08:55:01.691Z,20.20
2022-08-31T08:57:34.544Z,20.10
2022-08-31T09:00:09.487Z,20.10
2022-08-31T09:02:50.003Z,20.10
2022-08-31T09:05:30.684Z,20.00
2022-08-31T09:08:47.456Z,20.10
2022-08-31T09:11:23.772Z,20.00
2022-08-31T09:14:06.280Z,20.10
2022-08-31T09:16:42.346Z,20.20
2022-08-31T09:19:17.047Z,20.30
2022-08-31T09:21:48.115Z,20.30
2022-08-31T09:24:20.071Z,20.40
2022-08-31T09:27:20.234Z,20.50
2022-08-31T09:29:54.680Z,20.60
2022-08-31T09:32:26.397Z,20.70
2022-08-31T09:34:58.974Z,20.90
2022-08-31T09:37:33.161Z,21.00
2022-08-31T09:40:16.116Z,21.00
2022-08-31T09:43:00.376Z,21.10
2022-08-31T09:45:38.722Z,21.20
2022-08-31T09:48:10.601Z,21.20
2022-08-31T09:50:44.939Z,21.30
2022-08-31T09:53:36.226Z,21.30
2022-08-31T09:56:22.447Z,21.40
2022-08-31T09:58:53.077Z,21.40
2022-08-31T10:01:25.513Z,21.30
2022-08-31T10:04:12.144Z,21.50
2022-08-31T10:06:49.671Z,21.60
2022-08-31T10:09:30.078Z,21.60
2022-08-31T10:12:04.287Z,21.60
2022-08-31T10:14:38.976Z,21.70
2022-08-31T10:17:15.065Z,21.80
2022-08-31T10:19:52.941Z,21.70
2022-08-31T10:22:28.448Z,21.80
2022-08-31T10:25:12.605Z,21.50
2022-08-31T10:27:45.079Z,21.50
2022-08-31T10:30:22.337Z,21.40
2022-08-31T10:32:56.306Z,21.50
2022-08-31T10:35:37.244Z,21.10
2022-08-31T10:38:20.056Z,20.90
2022-08-31T10:40:53.229Z,20.60
2022-08-31T10:43:24.459Z,20.50
2022-08-31T10:45:54.954Z,20.60
2022-08-31T10:48:25.179Z,20.70
2022-08-31T10:51:05.765Z,20.80
2022-08-31T10:53:52.251Z,20.90
2022-08-31T10:56:32.290Z,20.90
2022-08-31T10:59:09.410Z,21.00
2022-08-31T11:01:49.307Z,21.00
2022-08-31T11:04:46.171Z,20.90
2022-08-31T11:07:26.074Z,20.90
2022-08-31T11:10:05.375Z,21.00
2022-08-31T11:12:42.300Z,21.10
2022-08-31T11:15:39.081Z,21.10
2022-08-31T11:18:46.044Z,21.20
2022-08-31T11:21:51.033Z,21.30
2022-08-31T11:24:51.285Z,21.30
2022-08-31T11:27:26.657Z,21.60
2022-08-31T11:29:58.411Z,21.80
2022-08-31T11:32:34.556Z,22.00
2022-08-31T11:35:08.170Z,21.90
2022-08-31T11:37:55.747Z,22.00
2022-08-31T11:40:59.486Z,22.00
2022-08-31T11:43:53.757Z,21.80
2022-08-31T11:46:57.392Z,21.70
2022-08-31T11:49:47.024Z,21.70
2022-08-31T11:52:34.542Z,21.60
2022-08-31T11:55:18.335Z,21.70
2022-08-31T11:58:25.807Z,21.80
2022-08-31T12:01:09.553Z,21.90
2022-08-31T12:03:53.232Z,21.70
2022-08-31T12:06:59.875Z,21.40
2022-08-31T12:10:27.611Z,21.50
2022-08-31T12:13:32.614Z,21.50
2022-08-31T12:16:17.880Z,21.60
2022-08-31T12:19:43.378Z,21.80
2022-08-31T12:22:47.053Z,22.00
2022-08-31T12:25:24.491Z,22.20
2022-08-31T12:28:05.700Z,22.40
2022-08-31T12:30:33.921Z,22.50
2022-08-31T12:33:08.523Z,22.60
2022-08-31T12:35:38.727Z,22.80
2022-08-31T12:38:08.169Z,23.10
2022-08-31T12:40:42.407Z,23.30
2022-08-31T12:43:16.451Z,23.50
2022-08-31T12:46:13.958Z,23.70
2022-08-31T12:49:23.977Z,23.60
2022-08-31T12:51:58.648Z,23.40
2022-08-31T12:54:56.556Z,23.40
2022-08-31T12:57:39.849Z,23.40
2022-08-31T13:00:15.704Z,23.60
2022-08-31T13:02:49.768Z,23.90
2022-08-31T13:05:22.707Z,24.10
2022-08-31T13:07:51.514Z,24.10
2022-08-31T13:10:28.185Z,24.20
2022-08-31T13:12:57.914Z,24.10
2022-08-31T13:15:28.771Z,24.30
2022-08-31T13:17:57.384Z,24.40
2022-08-31T13:20:33.742Z,24.40
2022-08-31T13:23:03.253Z,24.50
2022-08-31T13:25:36.569Z,24.70
2022-08-31T13:28:07.914Z,24.90
2022-08-31T13:30:39.041Z,24.90
2022-08-31T13:33:23.218Z,25.20
2022-08-31T13:35:57.626Z,25.60
2022-08-31T13:38:36.353Z,26.40
2022-08-31T13:41:07.242Z,28.00
2022-08-31T13:43:37.495Z,30.00
2022-08-31T13:46:05.728Z,31.90
2022-08-31T13:48:37.977Z,33.10
2022-08-31T13:51:13.377Z,34.40
2022-08-31T13:53:45.827Z,34.90
2022-08-31T13:56:54.211Z,35.60
2022-08-31T13:59:32.477Z,36.40
2022-08-31T14:02:03.444Z,37.30
2022-08-31T14:04:44.509Z,37.50
2022-08-31T14:07:20.071Z,37.50
2022-08-31T14:09:50.198Z,37.90
2022-08-31T14:12:34.868Z,38.20
2022-08-31T14:15:18.460Z,38.60
2022-08-31T14:20:53.402Z,39.40
2022-08-31T14:23:34.153Z,39.10
2022-08-31T14:26:05.723Z,38.90
2022-08-31T14:28:42.514Z,38.30
2022-08-31T14:31:22.249Z,36.80
2022-08-31T14:33:55.996Z,36.40
2022-08-31T14:36:26.095Z,35.90
2022-08-31T14:38:55.291Z,36.20
2022-08-31T14:41:30.105Z,36.50
2022-08-31T14:44:10.209Z,35.90
2022-08-31T14:46:39.487Z,35.10
2022-08-31T14:49:09.326Z,33.80
2022-08-31T14:51:39.062Z,32.50
2022-08-31T14:54:09.816Z,31.20
2022-08-31T14:56:46.755Z,30.30
2022-08-31T14:59:16.860Z,29.50
2022-08-31T15:01:45.843Z,28.80
2022-08-31T15:04:15.967Z,28.40
2022-08-31T15:06:50.247Z,28.10
2022-08-31T15:09:19.438Z,27.90
2022-08-31T15:11:47.330Z,27.60
2022-08-31T15:14:15.295Z,27.30
2022-08-31T15:16:45.192Z,27.30
2022-08-31T15:19:14.766Z,27.30
2022-08-31T15:21:52.177Z,27.20
2022-08-31T15:24:24.135Z,27.10
2022-08-31T15:26:53.619Z,27.80
2022-08-31T15:29:24.844Z,29.30
2022-08-31T15:31:54.945Z,30.10
2022-08-31T15:34:24.988Z,30.10
2022-08-31T15:36:56.041Z,30.00
2022-08-31T15:39:27.075Z,29.50
2022-08-31T15:41:55.276Z,29.10
2022-08-31T15:44:23.184Z,28.80
2022-08-31T15:47:08.495Z,28.50
2022-08-31T15:49:37.757Z,28.30
2022-08-31T15:52:07.765Z,28.00
2022-08-31T15:54:40.488Z,27.70
2022-08-31T15:57:11.275Z,27.30
2022-08-31T15:59:43.565Z,27.10
2022-08-31T16:02:13.555Z,26.90
2022-08-31T16:04:43.392Z,26.80
2022-08-31T16:07:13.956Z,26.70
2022-08-31T16:09:46.141Z,26.70
2022-08-31T16:12:14.704Z,26.50
2022-08-31T16:14:45.010Z,26.50
2022-08-31T16:17:14.446Z,26.40
2022-08-31T16:19:42.945Z,26.40
2022-08-31T16:22:10.912Z,26.40
2022-08-31T16:24:39.669Z,26.30
2022-08-31T16:27:11.494Z,26.30
2022-08-31T16:29:39.857Z,26.10
2022-08-31T16:32:09.336Z,26.20
2022-08-31T16:34:39.356Z,26.10
2022-08-31T16:37:08.862Z,26.10
2022-08-31T16:39:37.967Z,26.10
2022-08-31T16:42:08.575Z,26.10
2022-08-31T16:44:37.244Z,26.10
2022-08-31T16:47:06.708Z,26.10
2022-08-31T16:49:33.809Z,25.90
2022-08-31T16:52:03.389Z,25.90
2022-08-31T16:54:32.213Z,25.80
2022-08-31T16:57:00.114Z,25.60
2022-08-31T16:59:30.857Z,25.60
2022-08-31T17:01:59.224Z,25.50
2022-08-31T17:04:51.088Z,25.30
2022-08-31T17:07:17.476Z,25.30
2022-08-31T17:09:46.337Z,25.20
2022-08-31T17:12:16.763Z,25.20
2022-08-31T17:14:51.337Z,25.10
2022-08-31T17:17:21.283Z,25.10
2022-08-31T17:19:49.387Z,25.10
2022-08-31T17:22:25.617Z,25.00
2022-08-31T17:24:57.757Z,24.90
2022-08-31T17:27:27.484Z,24.90
2022-08-31T17:29:59.842Z,24.90
2022-08-31T17:32:29.295Z,24.80
2022-08-31T17:34:57.627Z,24.70
2022-08-31T17:37:32.676Z,24.60
2022-08-31T17:40:01.291Z,24.60
2022-08-31T17:42:29.618Z,24.50
2022-08-31T17:44:59.196Z,24.50
2022-08-31T17:47:27.316Z,24.40
2022-08-31T17:49:55.230Z,24.30
2022-08-31T17:52:23.707Z,24.20
2022-08-31T17:54:52.286Z,24.20
2022-08-31T17:57:25.050Z,24.10
2022-08-31T17:59:54.769Z,24.00
2022-08-31T18:02:31.157Z,24.00
2022-08-31T18:04:59.363Z,24.00
2022-08-31T18:07:27.352Z,23.90
2022-08-31T18:09:55.295Z,23.80
2022-08-31T18:12:25.481Z,23.70
2022-08-31T18:14:57.368Z,23.70
2022-08-31T18:17:26.930Z,23.60
2022-08-31T18:19:55.692Z,23.60
2022-08-31T18:22:24.225Z,23.50
2022-08-31T18:24:52.134Z,23.50
2022-08-31T18:27:20.784Z,23.40
2022-08-31T18:29:49.038Z,23.40
2022-08-31T18:32:17.178Z,23.30
2022-08-31T18:34:47.425Z,23.20
2022-08-31T18:37:22.047Z,23.20
2022-08-31T18:40:08.713Z,23.10
2022-08-31T18:42:56.900Z,23.10
2022-08-31T18:45:25.475Z,23.00
2022-08-31T18:50:48.448Z,22.90
2022-08-31T18:53:27.531Z,22.90
2022-08-31T18:55:58.309Z,22.90
2022-08-31T18:58:26.438Z,22.90
2022-08-31T19:00:57.162Z,22.80
2022-08-31T19:03:25.540Z,22.80
2022-08-31T19:05:55.016Z,22.80
2022-08-31T19:08:23.016Z,22.70
2022-08-31T19:10:51.236Z,22.70
2022-08-31T19:13:19.361Z,22.60
2022-08-31T19:15:47.427Z,22.50
2022-08-31T19:18:15.962Z,22.40
2022-08-31T19:20:43.894Z,22.40
2022-08-31T19:23:17.245Z,22.40
2022-08-31T19:25:48.434Z,22.30
2022-08-31T19:28:16.549Z,22.30
2022-08-31T19:30:48.644Z,22.20
2022-08-31T19:33:16.991Z,22.10
2022-08-31T19:35:45.271Z,22.00
2022-08-31T19:38:15.351Z,22.00
2022-08-31T19:40:43.394Z,22.00
2022-08-31T19:46:15.736Z,21.90
2022-08-31T19:48:44.999Z,21.90
2022-08-31T19:51:14.382Z,21.90
2022-08-31T19:53:44.957Z,21.80
2022-08-31T19:56:16.086Z,21.90
2022-08-31T19:58:45.737Z,21.80
2022-08-31T20:01:13.978Z,21.80
2022-08-31T20:03:41.936Z,21.80
2022-08-31T20:06:12.528Z,21.70
2022-08-31T20:08:41.314Z,21.70
2022-08-31T20:11:12.417Z,21.70
2022-08-31T20:13:41.168Z,21.60
2022-08-31T20:16:11.987Z,21.50
2022-08-31T20:18:46.842Z,21.60
2022-08-31T20:21:17.231Z,21.60
2022-08-31T20:23:47.780Z,21.50
2022-08-31T20:26:21.847Z,21.50
2022-08-31T20:28:52.597Z,21.40
2022-08-31T20:31:21.310Z,21.40
2022-08-31T20:33:49.358Z,21.40
2022-08-31T20:36:20.047Z,21.40
2022-08-31T20:38:48.537Z,21.30
2022-08-31T20:41:17.804Z,21.30
2022-08-31T20:43:46.013Z,21.30
2022-08-31T20:46:34.716Z,21.30
2022-08-31T20:49:20.691Z,21.30
2022-08-31T20:51:48.670Z,21.30
2022-08-31T20:54:17.326Z,21.40
2022-08-31T20:56:46.719Z,21.30
2022-08-31T20:59:14.553Z,21.30
2022-08-31T21:01:42.475Z,21.30
2022-08-31T21:04:10.339Z,21.30
2022-08-31T21:06:39.132Z,21.30
2022-08-31T21:09:08.150Z,21.30
2022-08-31T21:11:40.800Z,21.40
2022-08-31T21:14:10.563Z,21.40
2022-08-31T21:16:42.437Z,21.40
2022-08-31T21:19:13.402Z,21.40
2022-08-31T21:21:41.654Z,21.40
2022-08-31T21:24:11.447Z,21.40
2022-08-31T21:26:41.618Z,21.40
2022-08-31T21:29:12.982Z,21.40
